sensor_id;sensor_type;location;lat;lon;timestamp;P1;durP1;ratioP1;P2;durP2;ratioP2
11113;SDS011;5610;52.154;9.198;2023-11-21T00:01:53;20.30;;;16.40;;
11113;SDS011;5610;52.154;9.198;2023-11-21T00:04:39;19.23;;;15.60;;
11113;SDS011;5610;52.154;9.198;2023-11-21T00:07:25;22.20;;;16.60;;
11113;SDS011;5610;52.154;9.198;2023-11-21T00:10:11;25.27;;;17.07;;
11113;SDS011;5610;52.154;9.198;2023-11-21T00:12:59;22.63;;;15.70;;
11113;SDS011;5610;52.154;9.198;2023-11-21T00:15:46;18.43;;;16.07;;
11113;SDS011;5610;52.154;9.198;2023-11-21T00:18:31;20.67;;;18.07;;
11113;SDS011;5610;52.154;9.198;2023-11-21T00:21:16;20.77;;;17.93;;
11113;SDS011;5610;52.154;9.198;2023-11-21T00:24:03;26.53;;;16.67;;
11113;SDS011;5610;52.154;9.198;2023-11-21T00:26:48;18.20;;;16.30;;
11113;SDS011;5610;52.154;9.198;2023-11-21T00:29:34;20.00;;;16.37;;
11113;SDS011;5610;52.154;9.198;2023-11-21T00:32:19;17.73;;;14.40;;
11113;SDS011;5610;52.154;9.198;2023-11-21T00:35:05;18.57;;;15.37;;
11113;SDS011;5610;52.154;9.198;2023-11-21T00:37:50;21.90;;;17.40;;
11113;SDS011;5610;52.154;9.198;2023-11-21T00:40:37;21.50;;;17.57;;
11113;SDS011;5610;52.154;9.198;2023-11-21T00:43:23;21.70;;;17.60;;
11113;SDS011;5610;52.154;9.198;2023-11-21T00:46:08;30.83;;;19.87;;
11113;SDS011;5610;52.154;9.198;2023-11-21T00:48:53;22.80;;;18.60;;
11113;SDS011;5610;52.154;9.198;2023-11-21T00:51:38;24.33;;;18.80;;
11113;SDS011;5610;52.154;9.198;2023-11-21T00:54:23;20.27;;;18.03;;
11113;SDS011;5610;52.154;9.198;2023-11-21T00:57:10;22.57;;;18.60;;
11113;SDS011;5610;52.154;9.198;2023-11-21T00:59:55;24.00;;;18.63;;
11113;SDS011;5610;52.154;9.198;2023-11-21T01:02:40;20.73;;;17.03;;
11113;SDS011;5610;52.154;9.198;2023-11-21T01:05:26;23.07;;;18.43;;
11113;SDS011;5610;52.154;9.198;2023-11-21T01:08:12;22.57;;;17.80;;
11113;SDS011;5610;52.154;9.198;2023-11-21T01:10:57;22.50;;;16.23;;
11113;SDS011;5610;52.154;9.198;2023-11-21T01:13:43;18.60;;;15.53;;
11113;SDS011;5610;52.154;9.198;2023-11-21T01:16:28;18.80;;;16.60;;
11113;SDS011;5610;52.154;9.198;2023-11-21T01:19:16;18.80;;;16.00;;
11113;SDS011;5610;52.154;9.198;2023-11-21T01:22:01;23.73;;;16.30;;
11113;SDS011;5610;52.154;9.198;2023-11-21T01:24:46;21.00;;;16.23;;
11113;SDS011;5610;52.154;9.198;2023-11-21T01:27:31;18.77;;;16.20;;
11113;SDS011;5610;52.154;9.198;2023-11-21T01:30:18;25.27;;;15.47;;
11113;SDS011;5610;52.154;9.198;2023-11-21T01:33:04;20.80;;;16.43;;
11113;SDS011;5610;52.154;9.198;2023-11-21T01:35:49;20.10;;;15.10;;
11113;SDS011;5610;52.154;9.198;2023-11-21T01:38:34;22.53;;;15.43;;
11113;SDS011;5610;52.154;9.198;2023-11-21T01:41:21;21.13;;;15.50;;
11113;SDS011;5610;52.154;9.198;2023-11-21T01:44:06;20.00;;;15.60;;
11113;SDS011;5610;52.154;9.198;2023-11-21T01:46:54;17.63;;;15.53;;
11113;SDS011;5610;52.154;9.198;2023-11-21T01:49:42;21.80;;;16.53;;
11113;SDS011;5610;52.154;9.198;2023-11-21T01:52:28;25.60;;;17.80;;
11113;SDS011;5610;52.154;9.198;2023-11-21T01:55:14;20.43;;;16.00;;
11113;SDS011;5610;52.154;9.198;2023-11-21T01:58:02;22.07;;;16.97;;
11113;SDS011;5610;52.154;9.198;2023-11-21T02:00:48;21.67;;;17.13;;
11113;SDS011;5610;52.154;9.198;2023-11-21T02:03:36;22.60;;;16.20;;
11113;SDS011;5610;52.154;9.198;2023-11-21T02:06:21;24.30;;;17.37;;
11113;SDS011;5610;52.154;9.198;2023-11-21T02:09:09;20.47;;;16.73;;
11113;SDS011;5610;52.154;9.198;2023-11-21T02:11:58;21.77;;;17.27;;
11113;SDS011;5610;52.154;9.198;2023-11-21T02:14:45;22.90;;;17.17;;
11113;SDS011;5610;52.154;9.198;2023-11-21T02:17:31;23.50;;;17.50;;
11113;SDS011;5610;52.154;9.198;2023-11-21T02:20:18;20.73;;;17.20;;
11113;SDS011;5610;52.154;9.198;2023-11-21T02:23:07;23.73;;;16.90;;
11113;SDS011;5610;52.154;9.198;2023-11-21T02:25:53;21.60;;;15.83;;
11113;SDS011;5610;52.154;9.198;2023-11-21T02:28:38;20.67;;;17.47;;
11113;SDS011;5610;52.154;9.198;2023-11-21T02:31:23;19.50;;;15.10;;
11113;SDS011;5610;52.154;9.198;2023-11-21T02:34:08;17.40;;;15.63;;
11113;SDS011;5610;52.154;9.198;2023-11-21T02:36:53;20.40;;;14.77;;
11113;SDS011;5610;52.154;9.198;2023-11-21T02:39:40;21.27;;;14.83;;
11113;SDS011;5610;52.154;9.198;2023-11-21T02:42:25;25.50;;;17.40;;
11113;SDS011;5610;52.154;9.198;2023-11-21T02:45:12;24.13;;;17.97;;
11113;SDS011;5610;52.154;9.198;2023-11-21T02:48:00;26.63;;;16.70;;
11113;SDS011;5610;52.154;9.198;2023-11-21T02:50:45;23.10;;;17.20;;
11113;SDS011;5610;52.154;9.198;2023-11-21T02:53:31;20.20;;;14.90;;
11113;SDS011;5610;52.154;9.198;2023-11-21T02:56:18;21.73;;;17.80;;
11113;SDS011;5610;52.154;9.198;2023-11-21T02:59:03;19.30;;;17.13;;
11113;SDS011;5610;52.154;9.198;2023-11-21T03:01:49;19.43;;;17.13;;
11113;SDS011;5610;52.154;9.198;2023-11-21T03:04:34;24.03;;;17.07;;
11113;SDS011;5610;52.154;9.198;2023-11-21T03:07:20;25.23;;;18.67;;
11113;SDS011;5610;52.154;9.198;2023-11-21T03:10:06;19.37;;;16.10;;
11113;SDS011;5610;52.154;9.198;2023-11-21T03:12:54;23.80;;;18.33;;
11113;SDS011;5610;52.154;9.198;2023-11-21T03:15:39;20.53;;;18.30;;
11113;SDS011;5610;52.154;9.198;2023-11-21T03:18:24;20.70;;;17.70;;
11113;SDS011;5610;52.154;9.198;2023-11-21T03:21:09;27.70;;;18.37;;
11113;SDS011;5610;52.154;9.198;2023-11-21T03:23:54;22.10;;;18.10;;
11113;SDS011;5610;52.154;9.198;2023-11-21T03:26:39;29.87;;;18.37;;
11113;SDS011;5610;52.154;9.198;2023-11-21T03:29:26;24.00;;;19.13;;
11113;SDS011;5610;52.154;9.198;2023-11-21T03:32:11;22.50;;;17.30;;
11113;SDS011;5610;52.154;9.198;2023-11-21T03:34:56;27.00;;;18.70;;
11113;SDS011;5610;52.154;9.198;2023-11-21T03:37:42;22.07;;;18.23;;
11113;SDS011;5610;52.154;9.198;2023-11-21T03:40:27;23.37;;;17.93;;
11113;SDS011;5610;52.154;9.198;2023-11-21T03:43:13;21.50;;;18.20;;
11113;SDS011;5610;52.154;9.198;2023-11-21T03:45:59;23.23;;;18.00;;
11113;SDS011;5610;52.154;9.198;2023-11-21T03:48:44;24.27;;;18.10;;
11113;SDS011;5610;52.154;9.198;2023-11-21T03:51:29;23.80;;;18.57;;
11113;SDS011;5610;52.154;9.198;2023-11-21T03:54:15;24.47;;;18.50;;
11113;SDS011;5610;52.154;9.198;2023-11-21T03:57:00;24.17;;;18.83;;
11113;SDS011;5610;52.154;9.198;2023-11-21T03:59:45;23.40;;;18.87;;
11113;SDS011;5610;52.154;9.198;2023-11-21T04:02:31;23.73;;;19.90;;
11113;SDS011;5610;52.154;9.198;2023-11-21T04:05:17;22.90;;;18.43;;
11113;SDS011;5610;52.154;9.198;2023-11-21T04:08:02;27.47;;;20.10;;
11113;SDS011;5610;52.154;9.198;2023-11-21T04:10:48;23.10;;;19.60;;
11113;SDS011;5610;52.154;9.198;2023-11-21T04:13:33;30.80;;;19.70;;
11113;SDS011;5610;52.154;9.198;2023-11-21T04:16:19;23.47;;;19.47;;
11113;SDS011;5610;52.154;9.198;2023-11-21T04:19:05;29.30;;;21.30;;
11113;SDS011;5610;52.154;9.198;2023-11-21T04:21:51;26.37;;;21.30;;
11113;SDS011;5610;52.154;9.198;2023-11-21T04:24:36;27.37;;;19.23;;
11113;SDS011;5610;52.154;9.198;2023-11-21T04:27:21;28.27;;;20.70;;
11113;SDS011;5610;52.154;9.198;2023-11-21T04:30:07;26.20;;;21.27;;
11113;SDS011;5610;52.154;9.198;2023-11-21T04:32:53;26.20;;;19.33;;
11113;SDS011;5610;52.154;9.198;2023-11-21T04:35:39;27.00;;;20.57;;
11113;SDS011;5610;52.154;9.198;2023-11-21T04:38:24;31.00;;;19.07;;
11113;SDS011;5610;52.154;9.198;2023-11-21T04:41:09;26.10;;;21.20;;
11113;SDS011;5610;52.154;9.198;2023-11-21T04:43:55;23.83;;;19.30;;
11113;SDS011;5610;52.154;9.198;2023-11-21T04:46:40;27.60;;;21.00;;
11113;SDS011;5610;52.154;9.198;2023-11-21T04:49:25;31.10;;;21.77;;
11113;SDS011;5610;52.154;9.198;2023-11-21T04:52:11;30.00;;;21.90;;
11113;SDS011;5610;52.154;9.198;2023-11-21T04:54:56;35.63;;;22.30;;
11113;SDS011;5610;52.154;9.198;2023-11-21T04:57:42;34.77;;;23.30;;
11113;SDS011;5610;52.154;9.198;2023-11-21T05:00:27;30.83;;;22.37;;
11113;SDS011;5610;52.154;9.198;2023-11-21T05:03:12;37.20;;;21.80;;
11113;SDS011;5610;52.154;9.198;2023-11-21T05:05:57;34.37;;;22.80;;
11113;SDS011;5610;52.154;9.198;2023-11-21T05:08:45;28.37;;;21.53;;
11113;SDS011;5610;52.154;9.198;2023-11-21T05:11:31;26.37;;;20.93;;
11113;SDS011;5610;52.154;9.198;2023-11-21T05:14:16;36.77;;;23.63;;
11113;SDS011;5610;52.154;9.198;2023-11-21T05:17:02;29.10;;;20.77;;
11113;SDS011;5610;52.154;9.198;2023-11-21T05:19:49;31.20;;;21.87;;
11113;SDS011;5610;52.154;9.198;2023-11-21T05:22:34;34.87;;;24.27;;
11113;SDS011;5610;52.154;9.198;2023-11-21T05:25:21;32.90;;;23.50;;
11113;SDS011;5610;52.154;9.198;2023-11-21T05:28:06;32.40;;;23.00;;
11113;SDS011;5610;52.154;9.198;2023-11-21T05:30:51;34.03;;;24.57;;
11113;SDS011;5610;52.154;9.198;2023-11-21T05:33:37;35.20;;;25.80;;
11113;SDS011;5610;52.154;9.198;2023-11-21T05:36:22;38.90;;;25.97;;
11113;SDS011;5610;52.154;9.198;2023-11-21T05:39:08;31.80;;;24.00;;
11113;SDS011;5610;52.154;9.198;2023-11-21T05:41:56;30.53;;;23.40;;
11113;SDS011;5610;52.154;9.198;2023-11-21T05:44:43;33.47;;;23.37;;
11113;SDS011;5610;52.154;9.198;2023-11-21T05:47:28;37.87;;;25.60;;
11113;SDS011;5610;52.154;9.198;2023-11-21T05:50:14;36.10;;;23.73;;
11113;SDS011;5610;52.154;9.198;2023-11-21T05:53:01;31.90;;;23.60;;
11113;SDS011;5610;52.154;9.198;2023-11-21T05:55:46;33.87;;;23.03;;
11113;SDS011;5610;52.154;9.198;2023-11-21T05:58:32;34.90;;;23.97;;
11113;SDS011;5610;52.154;9.198;2023-11-21T06:01:18;38.07;;;30.00;;
11113;SDS011;5610;52.154;9.198;2023-11-21T06:04:03;39.40;;;32.30;;
11113;SDS011;5610;52.154;9.198;2023-11-21T06:06:48;39.47;;;28.83;;
11113;SDS011;5610;52.154;9.198;2023-11-21T06:09:33;48.30;;;33.77;;
11113;SDS011;5610;52.154;9.198;2023-11-21T06:12:19;45.40;;;32.20;;
11113;SDS011;5610;52.154;9.198;2023-11-21T06:15:06;39.57;;;30.10;;
11113;SDS011;5610;52.154;9.198;2023-11-21T06:17:52;36.90;;;29.37;;
11113;SDS011;5610;52.154;9.198;2023-11-21T06:20:37;35.87;;;27.17;;
11113;SDS011;5610;52.154;9.198;2023-11-21T06:23:23;32.07;;;24.90;;
11113;SDS011;5610;52.154;9.198;2023-11-21T06:26:08;30.60;;;23.80;;
11113;SDS011;5610;52.154;9.198;2023-11-21T06:28:54;30.93;;;25.00;;
11113;SDS011;5610;52.154;9.198;2023-11-21T06:31:41;32.90;;;24.53;;
11113;SDS011;5610;52.154;9.198;2023-11-21T06:34:27;33.43;;;27.67;;
11113;SDS011;5610;52.154;9.198;2023-11-21T06:37:12;35.77;;;26.13;;
11113;SDS011;5610;52.154;9.198;2023-11-21T06:39:57;36.50;;;26.63;;
11113;SDS011;5610;52.154;9.198;2023-11-21T06:42:43;38.63;;;27.20;;
11113;SDS011;5610;52.154;9.198;2023-11-21T06:45:30;44.07;;;27.60;;
11113;SDS011;5610;52.154;9.198;2023-11-21T06:48:16;36.93;;;26.70;;
11113;SDS011;5610;52.154;9.198;2023-11-21T06:51:02;37.07;;;26.37;;
11113;SDS011;5610;52.154;9.198;2023-11-21T06:53:47;35.70;;;26.37;;
11113;SDS011;5610;52.154;9.198;2023-11-21T06:56:32;38.03;;;28.27;;
11113;SDS011;5610;52.154;9.198;2023-11-21T06:59:17;36.43;;;27.40;;
11113;SDS011;5610;52.154;9.198;2023-11-21T07:02:02;32.80;;;27.53;;
11113;SDS011;5610;52.154;9.198;2023-11-21T07:04:51;33.63;;;25.60;;
11113;SDS011;5610;52.154;9.198;2023-11-21T07:07:36;32.63;;;25.03;;
11113;SDS011;5610;52.154;9.198;2023-11-21T07:10:22;34.70;;;24.83;;
11113;SDS011;5610;52.154;9.198;2023-11-21T07:13:08;40.67;;;26.80;;
11113;SDS011;5610;52.154;9.198;2023-11-21T07:15:56;34.23;;;24.60;;
11113;SDS011;5610;52.154;9.198;2023-11-21T07:18:41;47.00;;;26.63;;
11113;SDS011;5610;52.154;9.198;2023-11-21T07:21:28;36.87;;;25.20;;
11113;SDS011;5610;52.154;9.198;2023-11-21T07:24:13;36.07;;;22.47;;
11113;SDS011;5610;52.154;9.198;2023-11-21T07:26:59;23.77;;;17.40;;
11113;SDS011;5610;52.154;9.198;2023-11-21T07:29:44;21.97;;;15.17;;
11113;SDS011;5610;52.154;9.198;2023-11-21T07:32:30;31.40;;;14.60;;
11113;SDS011;5610;52.154;9.198;2023-11-21T07:35:15;25.47;;;12.63;;
11113;SDS011;5610;52.154;9.198;2023-11-21T07:38:02;15.97;;;11.30;;
11113;SDS011;5610;52.154;9.198;2023-11-21T07:40:48;13.40;;;10.00;;
11113;SDS011;5610;52.154;9.198;2023-11-21T07:43:33;11.93;;;9.00;;
11113;SDS011;5610;52.154;9.198;2023-11-21T07:46:19;13.10;;;8.40;;
11113;SDS011;5610;52.154;9.198;2023-11-21T07:49:06;9.87;;;8.57;;
11113;SDS011;5610;52.154;9.198;2023-11-21T07:51:51;9.70;;;7.53;;
11113;SDS011;5610;52.154;9.198;2023-11-21T07:54:37;8.23;;;7.37;;
11113;SDS011;5610;52.154;9.198;2023-11-21T07:57:23;11.50;;;8.33;;
11113;SDS011;5610;52.154;9.198;2023-11-21T08:00:08;11.30;;;7.83;;
11113;SDS011;5610;52.154;9.198;2023-11-21T08:02:58;11.93;;;8.60;;
11113;SDS011;5610;52.154;9.198;2023-11-21T08:05:44;11.47;;;8.30;;
11113;SDS011;5610;52.154;9.198;2023-11-21T08:08:29;11.40;;;8.60;;
11113;SDS011;5610;52.154;9.198;2023-11-21T08:11:15;10.43;;;8.07;;
11113;SDS011;5610;52.154;9.198;2023-11-21T08:14:01;12.73;;;8.73;;
11113;SDS011;5610;52.154;9.198;2023-11-21T08:16:46;10.20;;;8.00;;
11113;SDS011;5610;52.154;9.198;2023-11-21T08:19:31;10.70;;;7.57;;
11113;SDS011;5610;52.154;9.198;2023-11-21T08:22:16;9.60;;;7.90;;
11113;SDS011;5610;52.154;9.198;2023-11-21T08:25:02;8.17;;;6.33;;
11113;SDS011;5610;52.154;9.198;2023-11-21T08:27:49;8.60;;;6.50;;
11113;SDS011;5610;52.154;9.198;2023-11-21T08:30:35;11.60;;;5.50;;
11113;SDS011;5610;52.154;9.198;2023-11-21T08:33:20;8.70;;;6.03;;
11113;SDS011;5610;52.154;9.198;2023-11-21T08:36:06;6.23;;;5.60;;
11113;SDS011;5610;52.154;9.198;2023-11-21T08:38:52;12.40;;;5.23;;
11113;SDS011;5610;52.154;9.198;2023-11-21T08:41:37;7.20;;;5.30;;
11113;SDS011;5610;52.154;9.198;2023-11-21T08:44:23;7.37;;;5.97;;
11113;SDS011;5610;52.154;9.198;2023-11-21T08:47:09;8.80;;;6.07;;
11113;SDS011;5610;52.154;9.198;2023-11-21T08:49:54;6.00;;;5.40;;
11113;SDS011;5610;52.154;9.198;2023-11-21T08:52:39;4.83;;;4.00;;
11113;SDS011;5610;52.154;9.198;2023-11-21T08:55:25;4.07;;;3.33;;
11113;SDS011;5610;52.154;9.198;2023-11-21T08:58:11;3.40;;;3.10;;
11113;SDS011;5610;52.154;9.198;2023-11-21T09:00:58;5.70;;;3.23;;
11113;SDS011;5610;52.154;9.198;2023-11-21T09:03:43;3.37;;;3.07;;
11113;SDS011;5610;52.154;9.198;2023-11-21T09:06:28;2.90;;;2.70;;
11113;SDS011;5610;52.154;9.198;2023-11-21T09:09:13;4.17;;;3.20;;
11113;SDS011;5610;52.154;9.198;2023-11-21T09:11:58;3.27;;;2.97;;
11113;SDS011;5610;52.154;9.198;2023-11-21T09:14:45;3.50;;;3.20;;
11113;SDS011;5610;52.154;9.198;2023-11-21T09:17:32;4.07;;;3.50;;
11113;SDS011;5610;52.154;9.198;2023-11-21T09:20:18;4.40;;;4.00;;
11113;SDS011;5610;52.154;9.198;2023-11-21T09:23:06;4.30;;;3.30;;
11113;SDS011;5610;52.154;9.198;2023-11-21T09:25:51;5.13;;;3.70;;
11113;SDS011;5610;52.154;9.198;2023-11-21T09:28:40;4.00;;;3.30;;
11113;SDS011;5610;52.154;9.198;2023-11-21T09:31:30;4.20;;;3.57;;
11113;SDS011;5610;52.154;9.198;2023-11-21T09:34:18;3.97;;;3.57;;
11113;SDS011;5610;52.154;9.198;2023-11-21T09:37:04;3.60;;;3.30;;
11113;SDS011;5610;52.154;9.198;2023-11-21T09:39:50;4.20;;;3.33;;
11113;SDS011;5610;52.154;9.198;2023-11-21T09:42:36;3.63;;;3.07;;
11113;SDS011;5610;52.154;9.198;2023-11-21T09:45:26;4.40;;;3.53;;
11113;SDS011;5610;52.154;9.198;2023-11-21T09:48:12;3.80;;;3.40;;
11113;SDS011;5610;52.154;9.198;2023-11-21T09:50:59;19.23;;;13.17;;
11113;SDS011;5610;52.154;9.198;2023-11-21T09:53:48;5.90;;;5.30;;
11113;SDS011;5610;52.154;9.198;2023-11-21T09:56:36;5.90;;;5.30;;
11113;SDS011;5610;52.154;9.198;2023-11-21T09:59:22;5.77;;;5.27;;
11113;SDS011;5610;52.154;9.198;2023-11-21T10:02:07;5.70;;;4.87;;
11113;SDS011;5610;52.154;9.198;2023-11-21T10:04:56;5.20;;;4.70;;
11113;SDS011;5610;52.154;9.198;2023-11-21T10:07:44;6.30;;;5.70;;
11113;SDS011;5610;52.154;9.198;2023-11-21T10:10:30;5.80;;;5.30;;
11113;SDS011;5610;52.154;9.198;2023-11-21T10:13:18;5.17;;;4.73;;
11113;SDS011;5610;52.154;9.198;2023-11-21T10:16:03;5.87;;;5.37;;
11113;SDS011;5610;52.154;9.198;2023-11-21T10:18:52;6.03;;;5.50;;
11113;SDS011;5610;52.154;9.198;2023-11-21T10:21:39;5.80;;;4.70;;
11113;SDS011;5610;52.154;9.198;2023-11-21T10:24:25;5.90;;;5.30;;
11113;SDS011;5610;52.154;9.198;2023-11-21T10:27:11;6.53;;;5.90;;
11113;SDS011;5610;52.154;9.198;2023-11-21T10:29:56;6.73;;;6.13;;
11113;SDS011;5610;52.154;9.198;2023-11-21T10:32:41;6.83;;;6.10;;
11113;SDS011;5610;52.154;9.198;2023-11-21T10:35:38;7.03;;;6.43;;
11113;SDS011;5610;52.154;9.198;2023-11-21T10:38:24;7.53;;;6.53;;
11113;SDS011;5610;52.154;9.198;2023-11-21T10:41:12;8.07;;;7.27;;
11113;SDS011;5610;52.154;9.198;2023-11-21T10:43:59;9.87;;;8.73;;
11113;SDS011;5610;52.154;9.198;2023-11-21T10:46:44;8.43;;;7.63;;
11113;SDS011;5610;52.154;9.198;2023-11-21T10:49:34;7.00;;;6.30;;
11113;SDS011;5610;52.154;9.198;2023-11-21T10:52:26;6.27;;;5.67;;
11113;SDS011;5610;52.154;9.198;2023-11-21T10:55:17;6.23;;;5.73;;
11113;SDS011;5610;52.154;9.198;2023-11-21T10:58:06;7.43;;;6.73;;
11113;SDS011;5610;52.154;9.198;2023-11-21T11:00:54;8.40;;;7.60;;
11113;SDS011;5610;52.154;9.198;2023-11-21T11:03:39;10.47;;;9.37;;
11113;SDS011;5610;52.154;9.198;2023-11-21T11:06:27;9.47;;;8.47;;
11113;SDS011;5610;52.154;9.198;2023-11-21T11:09:13;9.60;;;8.60;;
11113;SDS011;5610;52.154;9.198;2023-11-21T11:12:01;10.00;;;9.00;;
11113;SDS011;5610;52.154;9.198;2023-11-21T11:14:49;10.10;;;9.00;;
11113;SDS011;5610;52.154;9.198;2023-11-21T11:17:36;13.87;;;9.47;;
11113;SDS011;5610;52.154;9.198;2023-11-21T11:20:24;10.13;;;8.97;;
11113;SDS011;5610;52.154;9.198;2023-11-21T11:23:23;10.03;;;9.03;;
11113;SDS011;5610;52.154;9.198;2023-11-21T11:26:24;9.90;;;8.90;;
11113;SDS011;5610;52.154;9.198;2023-11-21T11:29:19;9.90;;;7.50;;
11113;SDS011;5610;52.154;9.198;2023-11-21T11:32:21;7.50;;;6.80;;
11113;SDS011;5610;52.154;9.198;2023-11-21T11:35:17;11.33;;;7.53;;
11113;SDS011;5610;52.154;9.198;2023-11-21T11:38:09;8.83;;;7.63;;
11113;SDS011;5610;52.154;9.198;2023-11-21T11:40:55;10.20;;;8.20;;
11113;SDS011;5610;52.154;9.198;2023-11-21T11:43:40;8.33;;;7.43;;
11113;SDS011;5610;52.154;9.198;2023-11-21T11:46:39;8.50;;;7.50;;
11113;SDS011;5610;52.154;9.198;2023-11-21T11:49:28;9.17;;;8.30;;
11113;SDS011;5610;52.154;9.198;2023-11-21T11:52:32;10.43;;;9.20;;
11113;SDS011;5610;52.154;9.198;2023-11-21T11:55:19;9.53;;;8.30;;
11113;SDS011;5610;52.154;9.198;2023-11-21T11:58:06;9.90;;;9.00;;
11113;SDS011;5610;52.154;9.198;2023-11-21T12:00:52;7.30;;;6.60;;
11113;SDS011;5610;52.154;9.198;2023-11-21T12:03:38;6.83;;;6.07;;
11113;SDS011;5610;52.154;9.198;2023-11-21T12:06:31;7.97;;;7.27;;
11113;SDS011;5610;52.154;9.198;2023-11-21T12:09:18;8.93;;;8.13;;
11113;SDS011;5610;52.154;9.198;2023-11-21T12:12:04;7.80;;;7.10;;
11113;SDS011;5610;52.154;9.198;2023-11-21T12:14:50;9.90;;;8.90;;
11113;SDS011;5610;52.154;9.198;2023-11-21T12:17:35;8.40;;;7.33;;
11113;SDS011;5610;52.154;9.198;2023-11-21T12:20:21;11.43;;;9.20;;
11113;SDS011;5610;52.154;9.198;2023-11-21T12:23:08;10.80;;;7.73;;
11113;SDS011;5610;52.154;9.198;2023-11-21T12:25:54;9.93;;;8.20;;
11113;SDS011;5610;52.154;9.198;2023-11-21T12:28:39;7.07;;;6.47;;
11113;SDS011;5610;52.154;9.198;2023-11-21T12:31:25;8.47;;;6.73;;
11113;SDS011;5610;52.154;9.198;2023-11-21T12:34:10;7.00;;;6.30;;
11113;SDS011;5610;52.154;9.198;2023-11-21T12:36:55;8.03;;;7.23;;
11113;SDS011;5610;52.154;9.198;2023-11-21T12:39:42;7.93;;;7.20;;
11113;SDS011;5610;52.154;9.198;2023-11-21T12:42:28;7.30;;;6.60;;
11113;SDS011;5610;52.154;9.198;2023-11-21T12:45:18;6.87;;;6.27;;
11113;SDS011;5610;52.154;9.198;2023-11-21T12:48:05;7.37;;;6.77;;
11113;SDS011;5610;52.154;9.198;2023-11-21T12:50:52;8.50;;;7.63;;
11113;SDS011;5610;52.154;9.198;2023-11-21T12:53:38;7.40;;;6.70;;
11113;SDS011;5610;52.154;9.198;2023-11-21T12:56:26;7.37;;;6.70;;
11113;SDS011;5610;52.154;9.198;2023-11-21T12:59:11;8.47;;;7.40;;
11113;SDS011;5610;52.154;9.198;2023-11-21T13:01:57;8.07;;;7.23;;
11113;SDS011;5610;52.154;9.198;2023-11-21T13:04:51;7.63;;;6.93;;
11113;SDS011;5610;52.154;9.198;2023-11-21T13:07:40;7.60;;;6.80;;
11113;SDS011;5610;52.154;9.198;2023-11-21T13:10:31;7.73;;;7.03;;
11113;SDS011;5610;52.154;9.198;2023-11-21T13:13:20;8.07;;;7.37;;
11113;SDS011;5610;52.154;9.198;2023-11-21T13:16:05;8.10;;;7.30;;
11113;SDS011;5610;52.154;9.198;2023-11-21T13:18:51;7.63;;;6.80;;
11113;SDS011;5610;52.154;9.198;2023-11-21T13:21:37;8.03;;;7.07;;
11113;SDS011;5610;52.154;9.198;2023-11-21T13:24:23;8.40;;;7.50;;
11113;SDS011;5610;52.154;9.198;2023-11-21T13:27:09;8.70;;;7.80;;
11113;SDS011;5610;52.154;9.198;2023-11-21T13:29:56;7.83;;;7.13;;
11113;SDS011;5610;52.154;9.198;2023-11-21T13:32:42;7.80;;;7.00;;
11113;SDS011;5610;52.154;9.198;2023-11-21T13:35:29;7.87;;;7.00;;
11113;SDS011;5610;52.154;9.198;2023-11-21T13:38:18;8.80;;;7.93;;
11113;SDS011;5610;52.154;9.198;2023-11-21T13:41:06;8.80;;;7.90;;
11113;SDS011;5610;52.154;9.198;2023-11-21T13:43:53;7.40;;;6.37;;
11113;SDS011;5610;52.154;9.198;2023-11-21T13:46:48;9.53;;;8.13;;
11113;SDS011;5610;52.154;9.198;2023-11-21T13:49:34;9.80;;;8.37;;
11113;SDS011;5610;52.154;9.198;2023-11-21T13:52:24;12.37;;;9.33;;
11113;SDS011;5610;52.154;9.198;2023-11-21T13:55:11;8.70;;;7.63;;
11113;SDS011;5610;52.154;9.198;2023-11-21T13:57:59;9.13;;;8.23;;
11113;SDS011;5610;52.154;9.198;2023-11-21T14:00:45;7.70;;;7.00;;
11113;SDS011;5610;52.154;9.198;2023-11-21T14:03:41;7.53;;;6.70;;
11113;SDS011;5610;52.154;9.198;2023-11-21T14:06:35;8.77;;;6.83;;
11113;SDS011;5610;52.154;9.198;2023-11-21T14:09:31;7.10;;;6.40;;
11113;SDS011;5610;52.154;9.198;2023-11-21T14:12:19;7.10;;;6.50;;
11113;SDS011;5610;52.154;9.198;2023-11-21T14:15:05;7.33;;;6.63;;
11113;SDS011;5610;52.154;9.198;2023-11-21T14:17:53;7.50;;;6.80;;
11113;SDS011;5610;52.154;9.198;2023-11-21T14:20:40;7.83;;;6.70;;
11113;SDS011;5610;52.154;9.198;2023-11-21T14:23:25;7.03;;;6.33;;
11113;SDS011;5610;52.154;9.198;2023-11-21T14:26:12;7.17;;;6.47;;
11113;SDS011;5610;52.154;9.198;2023-11-21T14:28:58;8.40;;;7.10;;
11113;SDS011;5610;52.154;9.198;2023-11-21T14:31:43;8.33;;;7.00;;
11113;SDS011;5610;52.154;9.198;2023-11-21T14:34:28;7.57;;;6.73;;
11113;SDS011;5610;52.154;9.198;2023-11-21T14:37:14;8.43;;;6.70;;
11113;SDS011;5610;52.154;9.198;2023-11-21T14:40:00;8.17;;;7.00;;
11113;SDS011;5610;52.154;9.198;2023-11-21T14:42:45;8.07;;;7.30;;
11113;SDS011;5610;52.154;9.198;2023-11-21T14:45:31;7.37;;;6.67;;
11113;SDS011;5610;52.154;9.198;2023-11-21T14:48:18;8.57;;;6.67;;
11113;SDS011;5610;52.154;9.198;2023-11-21T14:51:18;8.67;;;6.80;;
11113;SDS011;5610;52.154;9.198;2023-11-21T14:54:15;10.20;;;7.20;;
11113;SDS011;5610;52.154;9.198;2023-11-21T14:57:08;6.37;;;5.77;;
11113;SDS011;5610;52.154;9.198;2023-11-21T14:59:55;6.60;;;6.00;;
11113;SDS011;5610;52.154;9.198;2023-11-21T15:02:42;7.03;;;6.47;;
11113;SDS011;5610;52.154;9.198;2023-11-21T15:05:33;7.50;;;6.80;;
11113;SDS011;5610;52.154;9.198;2023-11-21T15:08:19;6.73;;;6.10;;
11113;SDS011;5610;52.154;9.198;2023-11-21T15:11:11;8.30;;;7.50;;
11113;SDS011;5610;52.154;9.198;2023-11-21T15:13:58;8.60;;;7.60;;
11113;SDS011;5610;52.154;9.198;2023-11-21T15:16:45;7.57;;;6.87;;
11113;SDS011;5610;52.154;9.198;2023-11-21T15:19:35;9.60;;;7.43;;
11113;SDS011;5610;52.154;9.198;2023-11-21T15:22:20;10.50;;;7.50;;
11113;SDS011;5610;52.154;9.198;2023-11-21T15:25:06;8.90;;;8.00;;
11113;SDS011;5610;52.154;9.198;2023-11-21T15:27:55;15.00;;;8.33;;
11113;SDS011;5610;52.154;9.198;2023-11-21T15:30:40;10.20;;;8.67;;
11113;SDS011;5610;52.154;9.198;2023-11-21T15:33:25;9.40;;;8.50;;
11113;SDS011;5610;52.154;9.198;2023-11-21T15:36:10;7.63;;;7.03;;
11113;SDS011;5610;52.154;9.198;2023-11-21T15:38:58;7.40;;;6.70;;
11113;SDS011;5610;52.154;9.198;2023-11-21T15:41:43;8.23;;;7.43;;
11113;SDS011;5610;52.154;9.198;2023-11-21T15:44:29;11.00;;;7.40;;
11113;SDS011;5610;52.154;9.198;2023-11-21T15:47:17;13.40;;;7.23;;
11113;SDS011;5610;52.154;9.198;2023-11-21T15:50:03;8.97;;;6.93;;
11113;SDS011;5610;52.154;9.198;2023-11-21T15:52:51;7.87;;;7.17;;
11113;SDS011;5610;52.154;9.198;2023-11-21T15:55:38;7.60;;;6.83;;
11113;SDS011;5610;52.154;9.198;2023-11-21T15:58:26;8.07;;;7.27;;
11113;SDS011;5610;52.154;9.198;2023-11-21T16:01:13;8.30;;;7.43;;
11113;SDS011;5610;52.154;9.198;2023-11-21T16:03:59;7.10;;;6.40;;
11113;SDS011;5610;52.154;9.198;2023-11-21T16:06:45;8.63;;;6.43;;
11113;SDS011;5610;52.154;9.198;2023-11-21T16:09:31;11.20;;;7.73;;
11113;SDS011;5610;52.154;9.198;2023-11-21T16:12:16;7.53;;;6.83;;
11113;SDS011;5610;52.154;9.198;2023-11-21T16:15:02;7.17;;;6.50;;
11113;SDS011;5610;52.154;9.198;2023-11-21T16:17:53;8.10;;;7.37;;
11113;SDS011;5610;52.154;9.198;2023-11-21T16:20:38;9.17;;;7.60;;
11113;SDS011;5610;52.154;9.198;2023-11-21T16:23:23;9.00;;;7.80;;
11113;SDS011;5610;52.154;9.198;2023-11-21T16:26:08;8.17;;;7.37;;
11113;SDS011;5610;52.154;9.198;2023-11-21T16:28:55;7.60;;;6.90;;
11113;SDS011;5610;52.154;9.198;2023-11-21T16:31:40;8.30;;;7.50;;
11113;SDS011;5610;52.154;9.198;2023-11-21T16:34:27;11.57;;;9.30;;
11113;SDS011;5610;52.154;9.198;2023-11-21T16:37:13;17.10;;;12.20;;
11113;SDS011;5610;52.154;9.198;2023-11-21T16:39:58;12.90;;;10.87;;
11113;SDS011;5610;52.154;9.198;2023-11-21T16:42:43;8.73;;;7.10;;
11113;SDS011;5610;52.154;9.198;2023-11-21T16:45:29;7.27;;;6.50;;